Dennis, MA (02638)

9:00 AM EST on February 09, 2016 (GMT -0500)
7/10ths ml from Bayview beach | | Change Station
CLOSE
Current Station
Personal Weather Station
Location: Dennis, MA
Elevation: 23 ft
Nearby Weather Stations

Elev 23 ft 41.74 °N, 70.21 °W | Updated 2 seconds ago

Overcast
Overcast
31.3 °F
Feels Like 31 °F
N
0.0
Wind Variable Wind from NNE
Gusts 0.0 mph

Today
High -- | Low -- °F
--% Chance of Precip.
Yesterday
High -- | Low -- °F
Precip. -- in
Pressure 29.65 in
Visibility 10.0 miles
Clouds Overcast 3000 ft
Windchill 31 °F
Dew Point 30 °F
Humidity 94%
Rainfall 0.00 in
Snow Depth Not available.
6:44 AM 5:05 PM
New Moon, 1% visible
METAR KHYA 091356Z 01007KT 10SM OVC030 00/M03 A2965 RMK AO2 PRESFR SLP041 T00001028
Pressure 29.65 in
Visibility 10.0 miles
Clouds Overcast 3000 ft
Windchill 31 °F
Dew Point 30 °F
Humidity 94%
Rainfall 0.00 in
Snow Depth Not available.
6:44 AM 5:05 PM
New Moon, 1% visible
METAR KHYA 091356Z 01007KT 10SM OVC030 00/M03 A2965 RMK AO2 PRESFR SLP041 T00001028

10-Day Weather Forecast

Almanac

Astronomy

Feb. 09, 2016 Rise Set
Actual Time
Civil Twilight
Nautical Twilight
Astronomical Twilight
Moon
Length of Visible Light
Length of Day
Tomorrow will be .
, % of the Moon is Illuminated

Today's Extremes

State Highs State Lows

Community

WunderPhotos

Upload Photos

1,891,591 photos uploaded!

WunderBlog® & News

Nearby

Air Quality

  Air Quality AQ Index Pollutant
Not available.

Snow Depth

Station Depth Elevation

Earthquake Activity

City Distance Mag. Time & Date
Minimum magnitude displayed is 2.5.

Coastal Water Temperatures

Place Temperature

Stations

Nearby Weather Stations

Station Location Temp. Windchill Dew Point Humidity Wind Precip. Elev Updated Type
                   

Watches & Warnings

There are currently no watches in effect.